createdAt,value
2022-10-30T00:00:28.064Z,64.09
2022-10-30T00:03:19.366Z,63.94
2022-10-30T00:05:51.718Z,63.83
2022-10-30T00:08:23.105Z,65.07
2022-10-30T00:10:52.847Z,64.83
2022-10-30T00:13:23.235Z,64.71
2022-10-30T00:15:54.113Z,65.28
2022-10-30T00:18:24.945Z,65.88
2022-10-30T00:20:54.252Z,65.84
2022-10-30T00:23:23.617Z,66.99
2022-10-30T00:25:53.039Z,66.80
2022-10-30T00:28:22.343Z,66.46
2022-10-30T00:30:51.888Z,66.59
2022-10-30T00:33:21.072Z,66.73
2022-10-30T00:35:52.414Z,67.49
2022-10-30T00:38:21.999Z,67.94
2022-10-30T00:40:51.711Z,67.68
2022-10-30T00:43:36.815Z,68.18
2022-10-30T00:46:15.010Z,68.65
2022-10-30T00:48:46.920Z,68.84
2022-10-30T00:51:18.194Z,68.76
2022-10-30T00:53:49.100Z,67.98
2022-10-30T00:56:22.239Z,68.14
2022-10-30T00:58:55.577Z,67.59
2022-10-30T01:01:28.466Z,67.79
2022-10-30T01:04:01.571Z,68.04
2022-10-30T01:06:36.999Z,68.06
2022-10-30T01:09:07.029Z,67.83
2022-10-30T01:11:36.867Z,68.25
2022-10-30T01:14:09.811Z,68.63
2022-10-30T01:16:59.007Z,69.04
2022-10-30T01:19:41.054Z,69.23
2022-10-30T01:22:25.078Z,69.16
2022-10-30T01:25:04.810Z,69.90
2022-10-30T01:27:46.273Z,69.44
2022-10-30T01:30:34.438Z,69.50
2022-10-30T01:33:17.652Z,69.35
2022-10-30T01:35:53.902Z,69.11
2022-10-30T01:38:29.419Z,69.58
2022-10-30T01:40:58.940Z,69.57
2022-10-30T01:43:29.130Z,69.49
2022-10-30T01:46:26.420Z,69.53
2022-10-30T01:49:17.379Z,69.39
2022-10-30T01:51:58.507Z,69.47
2022-10-30T01:54:40.341Z,69.51
2022-10-30T01:57:19.416Z,69.68
2022-10-30T01:59:56.936Z,70.08
2022-10-30T02:02:26.458Z,70.40
2022-10-30T02:04:57.775Z,70.47
2022-10-30T02:07:27.278Z,70.15
2022-10-30T02:09:58.203Z,70.94
2022-10-30T02:12:30.763Z,70.97
2022-10-30T02:15:03.028Z,70.50
2022-10-30T02:17:32.457Z,71.14
2022-10-30T02:20:01.796Z,71.54
2022-10-30T02:22:33.682Z,71.64
2022-10-30T02:25:03.417Z,70.96
2022-10-30T02:27:32.659Z,71.33
2022-10-30T02:30:02.078Z,71.54
2022-10-30T02:32:31.716Z,71.12
2022-10-30T02:35:01.117Z,71.61
2022-10-30T02:37:32.793Z,72.37
2022-10-30T02:40:02.350Z,72.83
2022-10-30T02:42:31.908Z,72.70
2022-10-30T02:45:01.110Z,72.97
2022-10-30T02:47:31.241Z,73.01
2022-10-30T02:50:00.572Z,72.73
2022-10-30T02:52:29.784Z,73.40
2022-10-30T02:55:00.774Z,72.89
2022-10-30T02:57:32.056Z,73.34
2022-10-30T03:00:01.781Z,73.68
2022-10-30T03:02:32.961Z,74.46
2022-10-30T03:05:02.975Z,74.80
2022-10-30T03:07:32.316Z,75.14
2022-10-30T03:10:02.958Z,74.56
2022-10-30T03:12:33.867Z,75.18
2022-10-30T03:15:03.100Z,76.06
2022-10-30T03:17:32.640Z,75.55
2022-10-30T03:20:02.893Z,76.25
2022-10-30T03:22:32.077Z,75.99
2022-10-30T03:25:04.547Z,74.81
2022-10-30T03:27:35.825Z,74.74
2022-10-30T03:35:29.091Z,75.55
2022-10-30T03:37:58.704Z,76.54
2022-10-30T03:40:29.307Z,76.06
2022-10-30T03:42:58.943Z,75.74
2022-10-30T03:45:28.525Z,75.68
2022-10-30T03:47:58.151Z,75.50
2022-10-30T03:50:27.897Z,76.72
2022-10-30T03:52:57.810Z,76.54
2022-10-30T03:55:28.886Z,75.72
2022-10-30T03:57:58.997Z,75.00
2022-10-30T04:00:28.643Z,76.57
2022-10-30T04:03:01.762Z,77.31
2022-10-30T04:05:33.746Z,76.68
2022-10-30T04:08:08.692Z,78.07
2022-10-30T04:10:44.366Z,77.59
2022-10-30T04:13:17.589Z,77.39
2022-10-30T04:15:57.884Z,77.09
2022-10-30T04:18:28.905Z,77.08
2022-10-30T04:21:01.296Z,76.85
2022-10-30T04:23:31.051Z,77.96
2022-10-30T04:26:03.849Z,77.62
2022-10-30T04:28:33.881Z,77.55
2022-10-30T04:31:03.594Z,77.67
2022-10-30T04:33:33.709Z,77.84
2022-10-30T04:36:03.501Z,77.89
2022-10-30T04:38:34.410Z,77.52
2022-10-30T04:41:07.141Z,78.10
2022-10-30T04:43:56.264Z,77.91
2022-10-30T04:46:25.983Z,78.56
2022-10-30T04:48:57.959Z,79.85
2022-10-30T04:51:27.558Z,79.05
2022-10-30T04:53:57.036Z,78.44
2022-10-30T04:56:27.751Z,78.14
2022-10-30T04:58:57.343Z,78.77
2022-10-30T05:01:26.826Z,78.88
2022-10-30T05:03:59.095Z,78.49
2022-10-30T05:06:31.545Z,78.17
2022-10-30T05:09:01.079Z,78.72
2022-10-30T05:11:37.191Z,78.35
2022-10-30T05:14:06.510Z,79.16
2022-10-30T05:16:36.069Z,78.54
2022-10-30T05:19:07.396Z,79.11
2022-10-30T05:21:37.701Z,79.42
2022-10-30T05:24:08.634Z,78.92
2022-10-30T05:26:46.241Z,79.86
2022-10-30T05:29:15.819Z,79.53
2022-10-30T05:31:45.389Z,78.80
2022-10-30T05:34:38.242Z,79.61
2022-10-30T05:37:07.778Z,79.83
2022-10-30T05:39:38.802Z,79.17
2022-10-30T05:42:17.382Z,78.57
2022-10-30T05:45:00.292Z,79.41
2022-10-30T05:47:32.002Z,80.21
2022-10-30T05:50:01.297Z,80.03
2022-10-30T05:52:31.329Z,79.35
2022-10-30T05:55:02.370Z,79.45
2022-10-30T05:57:59.257Z,79.39
2022-10-30T06:00:29.643Z,79.46
2022-10-30T06:03:03.122Z,79.04
2022-10-30T06:05:35.719Z,79.39
2022-10-30T06:08:05.981Z,79.30
2022-10-30T06:10:36.951Z,79.17
2022-10-30T06:13:16.953Z,78.83
2022-10-30T06:15:59.357Z,78.88
2022-10-30T06:18:38.232Z,79.01
2022-10-30T06:21:12.610Z,79.64
2022-10-30T06:24:08.035Z,78.75
2022-10-30T06:27:03.450Z,78.25
2022-10-30T06:29:34.407Z,78.36
2022-10-30T06:32:06.564Z,78.14
2022-10-30T06:34:36.753Z,78.29
2022-10-30T06:37:06.564Z,78.62
2022-10-30T06:39:36.032Z,78.23
2022-10-30T06:42:22.485Z,77.83
2022-10-30T06:45:11.015Z,77.60
2022-10-30T06:47:40.573Z,77.00
2022-10-30T06:50:12.411Z,76.69
2022-10-30T06:52:42.304Z,76.43
2022-10-30T06:55:12.340Z,76.08
2022-10-30T06:58:02.257Z,76.51
2022-10-30T07:01:01.014Z,76.39
2022-10-30T07:03:37.229Z,76.12
2022-10-30T07:06:07.199Z,75.49
2022-10-30T07:08:37.073Z,75.16
2022-10-30T07:11:06.992Z,75.09
2022-10-30T07:13:56.509Z,74.75
2022-10-30T07:16:39.321Z,75.16
2022-10-30T07:19:08.663Z,74.90
2022-10-30T07:21:38.346Z,74.92
2022-10-30T07:24:09.569Z,74.78
2022-10-30T07:26:52.047Z,74.56
2022-10-30T07:29:34.248Z,74.34
2022-10-30T07:32:24.540Z,74.61
2022-10-30T07:35:14.893Z,74.13
2022-10-30T07:38:12.971Z,74.34
2022-10-30T07:40:54.711Z,74.95
2022-10-30T07:43:46.270Z,74.61
2022-10-30T07:46:50.945Z,74.91
2022-10-30T07:49:47.837Z,74.79
2022-10-30T07:52:17.757Z,73.83
2022-10-30T07:54:50.639Z,72.91
2022-10-30T07:57:43.986Z,72.87
2022-10-30T08:00:42.681Z,73.07
2022-10-30T08:03:22.288Z,74.31
2022-10-30T08:06:21.642Z,72.92
2022-10-30T08:08:54.201Z,72.27
2022-10-30T08:11:31.237Z,70.15
2022-10-30T08:14:02.415Z,69.68
2022-10-30T08:16:32.263Z,68.94
2022-10-30T08:19:01.629Z,67.75
2022-10-30T08:21:33.382Z,69.80
2022-10-30T08:24:09.129Z,68.92
2022-10-30T08:26:38.874Z,68.76
2022-10-30T08:29:08.371Z,69.26
2022-10-30T08:31:38.027Z,67.57
2022-10-30T08:34:32.505Z,65.76
2022-10-30T08:37:08.161Z,66.18
2022-10-30T08:39:37.864Z,65.41
2022-10-30T08:42:27.487Z,64.41
2022-10-30T08:44:59.554Z,63.70
2022-10-30T08:47:47.702Z,62.85
2022-10-30T08:50:17.477Z,63.63
2022-10-30T08:52:50.903Z,61.82
2022-10-30T08:55:23.582Z,62.01
2022-10-30T08:57:53.018Z,61.37
2022-10-30T09:00:22.549Z,61.00
2022-10-30T09:03:29.856Z,61.94
2022-10-30T09:06:33.441Z,63.08
2022-10-30T09:09:39.579Z,61.90
2022-10-30T09:12:09.878Z,62.51
2022-10-30T09:14:46.162Z,61.22
2022-10-30T09:17:15.708Z,61.33
2022-10-30T09:22:31.933Z,61.07
2022-10-30T09:25:02.919Z,60.81
2022-10-30T09:27:48.907Z,60.44
2022-10-30T09:30:20.597Z,60.73
2022-10-30T09:32:58.717Z,60.49
2022-10-30T09:35:48.527Z,60.38
2022-10-30T09:38:17.805Z,60.83
2022-10-30T09:41:10.553Z,59.94
2022-10-30T09:43:52.363Z,60.63
2022-10-30T09:46:34.288Z,60.60
2022-10-30T09:49:34.368Z,59.77
2022-10-30T09:52:23.537Z,59.50
2022-10-30T09:55:16.481Z,59.71
2022-10-30T09:57:56.363Z,58.70
2022-10-30T10:00:32.190Z,56.88
2022-10-30T10:03:18.116Z,58.52
2022-10-30T10:06:14.028Z,57.52
2022-10-30T10:09:00.532Z,57.52
2022-10-30T10:11:54.810Z,58.34
2022-10-30T10:14:29.379Z,59.45
2022-10-30T10:17:02.328Z,58.72
2022-10-30T10:19:37.149Z,59.60
2022-10-30T10:22:14.922Z,60.04
2022-10-30T10:24:47.692Z,59.73
2022-10-30T10:27:27.902Z,59.09
2022-10-30T10:30:05.907Z,58.96
2022-10-30T10:32:58.701Z,59.36
2022-10-30T10:35:54.757Z,59.12
2022-10-30T10:38:38.231Z,59.79
2022-10-30T10:41:20.002Z,59.92
2022-10-30T10:44:05.178Z,59.60
2022-10-30T10:47:07.211Z,59.98
2022-10-30T10:49:58.253Z,59.92
2022-10-30T10:52:37.031Z,60.76
2022-10-30T10:55:11.718Z,60.96
2022-10-30T10:57:43.518Z,60.93
2022-10-30T11:00:18.866Z,60.49
2022-10-30T11:02:58.657Z,60.56
2022-10-30T11:05:34.895Z,60.42
2022-10-30T11:08:13.472Z,60.68
2022-10-30T11:10:42.861Z,61.06
2022-10-30T11:13:14.683Z,60.12
2022-10-30T11:15:56.502Z,60.83
2022-10-30T11:18:27.518Z,60.50
2022-10-30T11:21:02.549Z,61.52
2022-10-30T11:23:40.983Z,60.03
2022-10-30T11:26:29.610Z,60.30
2022-10-30T11:29:03.899Z,59.93
2022-10-30T11:31:40.219Z,58.98
2022-10-30T11:34:30.085Z,58.51
2022-10-30T11:36:59.380Z,58.18
2022-10-30T11:39:30.796Z,58.27
2022-10-30T11:42:04.763Z,58.65
2022-10-30T11:44:37.896Z,57.79
2022-10-30T11:47:08.747Z,58.82
2022-10-30T11:49:46.028Z,58.36
2022-10-30T11:52:19.276Z,59.95
2022-10-30T11:54:53.371Z,59.63
2022-10-30T11:57:32.662Z,60.29
2022-10-30T12:00:05.673Z,60.90
2022-10-30T12:02:44.373Z,60.12
2022-10-30T12:05:36.473Z,60.45
2022-10-30T12:08:20.643Z,60.06
2022-10-30T12:11:01.829Z,60.61
2022-10-30T12:13:40.481Z,60.67
2022-10-30T12:16:16.743Z,60.44
2022-10-30T12:19:00.860Z,59.76
2022-10-30T12:21:38.040Z,60.44
2022-10-30T12:24:14.819Z,60.84
2022-10-30T12:26:49.955Z,60.46
2022-10-30T12:29:22.224Z,60.46
2022-10-30T12:31:58.212Z,59.60
2022-10-30T12:34:35.197Z,59.28
2022-10-30T12:37:12.999Z,58.87
2022-10-30T12:39:57.722Z,58.95
2022-10-30T12:42:28.167Z,60.11
2022-10-30T12:45:09.025Z,59.40
2022-10-30T12:47:44.381Z,60.91
2022-10-30T12:50:22.093Z,60.02
2022-10-30T12:53:01.719Z,61.34
2022-10-30T12:55:38.244Z,59.43
2022-10-30T12:58:20.078Z,59.72
2022-10-30T13:00:56.024Z,60.09
2022-10-30T13:03:30.878Z,60.55
2022-10-30T13:06:04.479Z,60.96
2022-10-30T13:08:39.996Z,61.71
2022-10-30T13:11:13.551Z,60.29
2022-10-30T13:13:46.106Z,61.61
2022-10-30T13:16:20.456Z,60.53
2022-10-30T13:18:50.136Z,61.30
2022-10-30T13:21:26.490Z,61.55
2022-10-30T13:24:03.269Z,61.58
2022-10-30T13:26:40.574Z,65.77
2022-10-30T13:29:23.210Z,67.87
2022-10-30T13:32:07.825Z,67.89
2022-10-30T13:34:47.026Z,69.53
2022-10-30T13:37:23.370Z,69.46
2022-10-30T13:40:06.618Z,68.34
2022-10-30T13:42:52.046Z,69.42
2022-10-30T13:45:52.430Z,66.31
2022-10-30T13:48:31.588Z,66.48
2022-10-30T13:51:23.932Z,64.92
2022-10-30T13:54:02.964Z,65.33
2022-10-30T13:56:34.797Z,65.16
2022-10-30T13:59:15.682Z,65.62
2022-10-30T14:01:55.306Z,66.19
2022-10-30T14:04:35.167Z,65.60
2022-10-30T14:07:20.182Z,64.77
2022-10-30T14:09:56.094Z,63.51
2022-10-30T14:12:51.587Z,58.80
2022-10-30T14:15:33.032Z,53.62
2022-10-30T14:18:28.253Z,51.44
2022-10-30T14:20:59.495Z,49.11
2022-10-30T14:23:35.168Z,50.37
2022-10-30T14:26:22.731Z,53.24
2022-10-30T14:28:56.384Z,56.80
2022-10-30T14:31:36.707Z,58.94
2022-10-30T14:34:06.349Z,61.60
2022-10-30T14:36:51.016Z,62.17
2022-10-30T14:39:31.281Z,63.89
2022-10-30T14:42:17.381Z,64.69
2022-10-30T14:45:01.900Z,65.03
2022-10-30T14:47:54.406Z,66.25
2022-10-30T14:50:48.118Z,66.74
2022-10-30T14:53:35.924Z,66.22
2022-10-30T14:56:12.240Z,66.89
2022-10-30T14:58:41.980Z,67.89
2022-10-30T15:01:34.861Z,68.16
2022-10-30T15:04:21.939Z,68.73
2022-10-30T15:06:59.659Z,69.14
2022-10-30T15:09:49.103Z,69.73
2022-10-30T15:12:43.587Z,70.17
2022-10-30T15:15:16.411Z,70.06
2022-10-30T15:17:49.984Z,70.47
2022-10-30T15:20:23.007Z,70.71
2022-10-30T15:22:56.258Z,71.73
2022-10-30T15:25:29.242Z,72.31
2022-10-30T15:28:00.316Z,72.59
2022-10-30T15:30:30.296Z,72.51
2022-10-30T15:33:01.548Z,72.45
2022-10-30T15:35:31.322Z,73.00
2022-10-30T15:38:06.012Z,73.03
2022-10-30T15:40:36.540Z,73.96
2022-10-30T15:43:08.883Z,74.03
2022-10-30T15:45:40.852Z,74.13
2022-10-30T15:48:26.301Z,74.00
2022-10-30T15:51:01.609Z,74.22
2022-10-30T15:53:35.079Z,73.84
2022-10-30T15:56:04.837Z,74.34
2022-10-30T15:58:37.577Z,74.37
2022-10-30T16:01:06.915Z,75.01
2022-10-30T16:03:37.954Z,75.38
2022-10-30T16:06:14.748Z,75.79
2022-10-30T16:08:48.904Z,75.75
2022-10-30T16:11:18.481Z,75.76
2022-10-30T16:13:48.034Z,76.00
2022-10-30T16:16:22.961Z,76.75
2022-10-30T16:18:55.723Z,76.51
2022-10-30T16:21:29.691Z,75.90
2022-10-30T16:24:01.703Z,75.82
2022-10-30T16:26:33.973Z,76.39
2022-10-30T16:29:10.252Z,76.54
2022-10-30T16:31:40.578Z,76.90
2022-10-30T16:34:17.409Z,76.52
2022-10-30T16:36:47.066Z,76.61
2022-10-30T16:39:18.580Z,76.55
2022-10-30T16:41:48.187Z,76.53
2022-10-30T16:44:27.422Z,76.75
2022-10-30T16:46:59.613Z,76.95
2022-10-30T16:49:33.659Z,77.03
2022-10-30T16:52:06.714Z,77.21
2022-10-30T16:54:41.098Z,77.13
2022-10-30T16:57:17.801Z,77.45
2022-10-30T16:59:49.568Z,78.15
2022-10-30T17:02:22.536Z,78.65
2022-10-30T17:04:58.262Z,78.22
2022-10-30T17:07:27.950Z,77.83
2022-10-30T17:09:59.328Z,78.72
2022-10-30T17:12:30.480Z,78.67
2022-10-30T17:15:12.749Z,78.67
2022-10-30T17:17:43.305Z,78.82
2022-10-30T17:20:31.098Z,78.81
2022-10-30T17:23:14.766Z,78.96
2022-10-30T17:26:13.354Z,78.65
2022-10-30T17:28:43.401Z,79.67
2022-10-30T17:31:31.233Z,79.09
2022-10-30T17:34:18.867Z,80.37
2022-10-30T17:36:50.885Z,80.14
2022-10-30T17:39:20.238Z,80.84
2022-10-30T17:41:49.915Z,80.80
2022-10-30T17:44:22.948Z,80.64
2022-10-30T17:46:52.755Z,81.28
2022-10-30T17:49:27.936Z,80.02
2022-10-30T17:51:59.210Z,81.23
2022-10-30T17:54:28.514Z,81.29
2022-10-30T17:56:58.940Z,81.33
2022-10-30T17:59:28.182Z,79.18
2022-10-30T18:01:57.856Z,80.28
2022-10-30T18:04:27.183Z,80.63
2022-10-30T18:06:58.398Z,80.18
2022-10-30T18:09:27.820Z,81.88
2022-10-30T18:11:57.221Z,82.27
2022-10-30T18:14:26.630Z,81.47
2022-10-30T18:16:55.990Z,81.16
2022-10-30T18:19:25.698Z,80.86
2022-10-30T18:21:55.017Z,80.86
2022-10-30T18:24:26.450Z,81.06
2022-10-30T18:26:56.931Z,81.04
2022-10-30T18:29:26.386Z,82.03
2022-10-30T18:31:55.723Z,81.95
2022-10-30T18:34:25.411Z,81.47
2022-10-30T18:36:54.621Z,81.44
2022-10-30T18:39:25.732Z,81.29
2022-10-30T18:41:56.467Z,81.30
2022-10-30T18:44:25.962Z,81.90
2022-10-30T18:47:00.078Z,83.22
2022-10-30T18:49:33.477Z,81.55
2022-10-30T18:52:03.029Z,81.34
2022-10-30T18:54:33.862Z,81.00
2022-10-30T18:57:03.543Z,81.79
2022-10-30T18:59:34.772Z,81.36
2022-10-30T19:02:04.306Z,81.72
2022-10-30T19:04:33.882Z,82.18
2022-10-30T19:07:03.998Z,83.10
2022-10-30T19:09:34.971Z,83.45
2022-10-30T19:12:04.252Z,83.05
2022-10-30T19:14:33.853Z,82.20
2022-10-30T19:17:03.230Z,82.28
2022-10-30T19:19:32.552Z,82.18
2022-10-30T19:22:02.034Z,82.15
2022-10-30T19:24:31.616Z,82.75
2022-10-30T19:27:03.485Z,82.38
2022-10-30T19:29:32.979Z,82.73
2022-10-30T19:32:02.487Z,81.94
2022-10-30T19:34:31.676Z,81.71
2022-10-30T19:37:01.329Z,81.96
2022-10-30T19:39:32.938Z,82.35
2022-10-30T19:42:04.165Z,81.58
2022-10-30T19:44:33.449Z,81.15
2022-10-30T19:47:03.032Z,80.87
2022-10-30T19:49:34.635Z,81.78
2022-10-30T19:52:04.249Z,81.73
2022-10-30T19:54:33.532Z,81.43
2022-10-30T19:57:04.467Z,81.29
2022-10-30T19:59:34.090Z,81.59
2022-10-30T20:02:03.587Z,80.88
2022-10-30T20:04:33.159Z,81.56
2022-10-30T20:07:02.853Z,81.30
2022-10-30T20:09:32.478Z,81.00
2022-10-30T20:12:03.191Z,81.75
2022-10-30T20:14:32.765Z,81.40
2022-10-30T20:17:02.234Z,81.66
2022-10-30T20:19:33.071Z,81.42
2022-10-30T20:22:02.570Z,81.12
2022-10-30T20:24:31.796Z,81.04
2022-10-30T20:27:01.161Z,81.14
2022-10-30T20:29:32.012Z,81.11
2022-10-30T20:32:01.204Z,81.32
2022-10-30T20:34:31.071Z,81.59
2022-10-30T20:37:00.304Z,81.25
2022-10-30T20:39:29.778Z,80.91
2022-10-30T20:41:59.241Z,81.23
2022-10-30T20:44:28.643Z,81.16
2022-10-30T20:46:59.342Z,81.14
2022-10-30T20:49:30.423Z,81.00
2022-10-30T20:51:59.683Z,81.21
2022-10-30T20:54:29.073Z,81.50
2022-10-30T20:56:58.415Z,81.06
2022-10-30T20:59:27.687Z,81.72
2022-10-30T21:01:58.691Z,81.18
2022-10-30T21:04:28.051Z,81.48
2022-10-30T21:06:57.728Z,81.15
2022-10-30T21:09:27.141Z,81.50
2022-10-30T21:11:56.552Z,81.61
2022-10-30T21:14:25.801Z,82.21
2022-10-30T21:16:55.028Z,81.51
2022-10-30T21:19:26.762Z,80.81
2022-10-30T21:21:58.459Z,80.85
2022-10-30T21:24:28.576Z,81.21
2022-10-30T21:26:57.958Z,80.66
2022-10-30T21:29:29.006Z,80.93
2022-10-30T21:32:02.120Z,80.45
2022-10-30T21:34:32.755Z,80.33
2022-10-30T21:37:02.199Z,81.13
2022-10-30T21:39:32.293Z,80.57
2022-10-30T21:42:01.686Z,80.12
2022-10-30T21:44:30.857Z,80.51
2022-10-30T21:47:00.158Z,80.34
2022-10-30T21:49:31.148Z,80.08
2022-10-30T21:52:00.468Z,80.24
2022-10-30T21:54:29.889Z,80.35
2022-10-30T21:56:59.222Z,80.11
2022-10-30T21:59:28.480Z,80.30
2022-10-30T22:01:57.965Z,80.98
2022-10-30T22:04:27.516Z,80.60
2022-10-30T22:06:58.180Z,80.16
2022-10-30T22:09:27.755Z,82.19
2022-10-30T22:11:57.124Z,81.49
2022-10-30T22:14:27.077Z,81.48
2022-10-30T22:16:56.532Z,80.83
2022-10-30T22:19:25.823Z,82.12
2022-10-30T22:21:55.126Z,81.76
2022-10-30T22:24:25.976Z,81.21
2022-10-30T22:26:55.302Z,81.91
2022-10-30T22:29:24.575Z,82.02
2022-10-30T22:32:03.264Z,82.01
2022-10-30T22:34:32.496Z,82.12
2022-10-30T22:37:01.961Z,81.43
2022-10-30T22:39:32.632Z,81.34
2022-10-30T22:42:07.646Z,81.42
2022-10-30T22:44:37.016Z,81.08
2022-10-30T22:47:06.514Z,81.19
2022-10-30T22:49:35.729Z,81.13
2022-10-30T22:52:05.291Z,80.70
2022-10-30T22:54:36.098Z,81.24
2022-10-30T22:57:05.397Z,80.59
2022-10-30T22:59:34.584Z,81.08
2022-10-30T23:02:04.129Z,80.49
2022-10-30T23:04:33.542Z,80.39
2022-10-30T23:07:09.023Z,80.80
2022-10-30T23:09:39.675Z,81.01
2022-10-30T23:12:09.265Z,80.79
2022-10-30T23:14:38.576Z,80.80
2022-10-30T23:17:08.133Z,80.85
2022-10-30T23:19:37.290Z,81.07
2022-10-30T23:22:06.817Z,80.81
2022-10-30T23:24:36.025Z,81.10
2022-10-30T23:27:06.798Z,80.47
2022-10-30T23:29:36.066Z,80.58
2022-10-30T23:32:05.734Z,80.59
2022-10-30T23:34:34.946Z,80.51
2022-10-30T23:37:04.290Z,80.25
2022-10-30T23:39:33.492Z,80.35
2022-10-30T23:42:02.889Z,80.06
2022-10-30T23:44:33.643Z,81.06
2022-10-30T23:47:03.190Z,81.20
2022-10-30T23:49:34.151Z,81.12
2022-10-30T23:52:03.789Z,81.11
2022-10-30T23:54:33.126Z,82.05
2022-10-30T23:57:02.661Z,81.39
2022-10-30T23:59:33.231Z,81.42
